sensor_id;sensor_type;location;lat;lon;timestamp;P1;durP1;ratioP1;P2;durP2;ratioP2
3791;SDS011;1911;53.768;11.474;2023-05-01T00:02:22;6.17;;;3.57;;
3791;SDS011;1911;53.768;11.474;2023-05-01T00:04:47;17.97;;;3.80;;
3791;SDS011;1911;53.768;11.474;2023-05-01T00:07:13;13.60;;;3.60;;
3791;SDS011;1911;53.768;11.474;2023-05-01T00:09:39;6.27;;;3.43;;
3791;SDS011;1911;53.768;11.474;2023-05-01T00:12:04;9.13;;;3.77;;
3791;SDS011;1911;53.768;11.474;2023-05-01T00:14:30;7.07;;;3.90;;
3791;SDS011;1911;53.768;11.474;2023-05-01T00:16:56;5.93;;;4.00;;
3791;SDS011;1911;53.768;11.474;2023-05-01T00:19:21;6.83;;;3.97;;
3791;SDS011;1911;53.768;11.474;2023-05-01T00:21:47;5.20;;;3.30;;
3791;SDS011;1911;53.768;11.474;2023-05-01T00:24:13;4.80;;;3.50;;
3791;SDS011;1911;53.768;11.474;2023-05-01T00:26:40;6.03;;;3.67;;
3791;SDS011;1911;53.768;11.474;2023-05-01T00:29:06;5.60;;;3.70;;
3791;SDS011;1911;53.768;11.474;2023-05-01T00:31:31;8.33;;;3.80;;
3791;SDS011;1911;53.768;11.474;2023-05-01T00:33:57;8.93;;;4.50;;
3791;SDS011;1911;53.768;11.474;2023-05-01T00:36:22;5.57;;;3.50;;
3791;SDS011;1911;53.768;11.474;2023-05-01T00:38:48;8.73;;;3.57;;
3791;SDS011;1911;53.768;11.474;2023-05-01T00:41:14;7.77;;;3.33;;
3791;SDS011;1911;53.768;11.474;2023-05-01T00:43:40;6.67;;;3.97;;
3791;SDS011;1911;53.768;11.474;2023-05-01T00:46:06;6.00;;;4.40;;
3791;SDS011;1911;53.768;11.474;2023-05-01T00:48:32;5.97;;;3.90;;
3791;SDS011;1911;53.768;11.474;2023-05-01T00:50:59;6.03;;;3.93;;
3791;SDS011;1911;53.768;11.474;2023-05-01T00:53:25;8.63;;;3.77;;
3791;SDS011;1911;53.768;11.474;2023-05-01T00:55:52;7.97;;;4.13;;
3791;SDS011;1911;53.768;11.474;2023-05-01T00:58:23;10.10;;;4.30;;
3791;SDS011;1911;53.768;11.474;2023-05-01T01:00:48;7.30;;;4.20;;
3791;SDS011;1911;53.768;11.474;2023-05-01T01:03:17;5.73;;;3.40;;
3791;SDS011;1911;53.768;11.474;2023-05-01T01:05:52;7.27;;;4.57;;
3791;SDS011;1911;53.768;11.474;2023-05-01T01:08:41;8.30;;;3.90;;
3791;SDS011;1911;53.768;11.474;2023-05-01T01:11:21;11.30;;;4.47;;
3791;SDS011;1911;53.768;11.474;2023-05-01T01:14:02;5.43;;;3.63;;
3791;SDS011;1911;53.768;11.474;2023-05-01T01:16:52;6.30;;;3.63;;
3791;SDS011;1911;53.768;11.474;2023-05-01T01:22:09;5.60;;;4.77;;
3791;SDS011;1911;53.768;11.474;2023-05-01T01:24:55;7.13;;;4.23;;
3791;SDS011;1911;53.768;11.474;2023-05-01T01:28:02;6.47;;;4.00;;
3791;SDS011;1911;53.768;11.474;2023-05-01T01:33:54;6.30;;;4.10;;
3791;SDS011;1911;53.768;11.474;2023-05-01T01:39:24;7.20;;;4.60;;
3791;SDS011;1911;53.768;11.474;2023-05-01T01:41:55;9.73;;;4.10;;
3791;SDS011;1911;53.768;11.474;2023-05-01T01:46:58;6.30;;;4.07;;
3791;SDS011;1911;53.768;11.474;2023-05-01T01:49:28;8.40;;;4.50;;
3791;SDS011;1911;53.768;11.474;2023-05-01T01:51:56;6.70;;;3.57;;
3791;SDS011;1911;53.768;11.474;2023-05-01T01:54:28;9.60;;;4.70;;
3791;SDS011;1911;53.768;11.474;2023-05-01T01:56:56;6.07;;;4.03;;
3791;SDS011;1911;53.768;11.474;2023-05-01T01:59:25;12.07;;;3.87;;
3791;SDS011;1911;53.768;11.474;2023-05-01T02:01:55;5.60;;;4.13;;
3791;SDS011;1911;53.768;11.474;2023-05-01T02:04:21;7.57;;;4.23;;
3791;SDS011;1911;53.768;11.474;2023-05-01T02:06:48;7.87;;;4.47;;
3791;SDS011;1911;53.768;11.474;2023-05-01T02:09:14;5.30;;;3.87;;
3791;SDS011;1911;53.768;11.474;2023-05-01T02:11:42;8.00;;;4.80;;
3791;SDS011;1911;53.768;11.474;2023-05-01T02:14:08;5.87;;;4.00;;
3791;SDS011;1911;53.768;11.474;2023-05-01T02:16:36;8.40;;;4.00;;
3791;SDS011;1911;53.768;11.474;2023-05-01T02:19:03;6.27;;;4.00;;
3791;SDS011;1911;53.768;11.474;2023-05-01T02:21:29;8.03;;;3.70;;
3791;SDS011;1911;53.768;11.474;2023-05-01T02:23:58;6.60;;;3.90;;
3791;SDS011;1911;53.768;11.474;2023-05-01T02:26:25;5.43;;;3.80;;
3791;SDS011;1911;53.768;11.474;2023-05-01T02:28:53;6.50;;;3.97;;
3791;SDS011;1911;53.768;11.474;2023-05-01T02:31:19;7.07;;;4.40;;
3791;SDS011;1911;53.768;11.474;2023-05-01T02:33:45;9.23;;;3.80;;
3791;SDS011;1911;53.768;11.474;2023-05-01T02:36:11;5.50;;;4.20;;
3791;SDS011;1911;53.768;11.474;2023-05-01T02:38:37;6.93;;;3.97;;
3791;SDS011;1911;53.768;11.474;2023-05-01T02:41:03;8.40;;;5.80;;
3791;SDS011;1911;53.768;11.474;2023-05-01T02:43:30;7.17;;;3.73;;
3791;SDS011;1911;53.768;11.474;2023-05-01T02:45:57;8.27;;;3.90;;
3791;SDS011;1911;53.768;11.474;2023-05-01T02:48:26;7.20;;;3.80;;
3791;SDS011;1911;53.768;11.474;2023-05-01T02:50:52;7.80;;;4.93;;
3791;SDS011;1911;53.768;11.474;2023-05-01T02:53:20;6.90;;;3.90;;
3791;SDS011;1911;53.768;11.474;2023-05-01T02:55:46;11.13;;;4.70;;
3791;SDS011;1911;53.768;11.474;2023-05-01T02:58:17;6.97;;;4.03;;
3791;SDS011;1911;53.768;11.474;2023-05-01T03:00:44;6.50;;;4.13;;
3791;SDS011;1911;53.768;11.474;2023-05-01T03:03:12;8.47;;;3.87;;
3791;SDS011;1911;53.768;11.474;2023-05-01T03:05:38;5.87;;;3.33;;
3791;SDS011;1911;53.768;11.474;2023-05-01T03:08:05;4.33;;;3.27;;
3791;SDS011;1911;53.768;11.474;2023-05-01T03:10:31;6.23;;;3.73;;
3791;SDS011;1911;53.768;11.474;2023-05-01T03:12:57;6.70;;;3.60;;
3791;SDS011;1911;53.768;11.474;2023-05-01T03:15:23;6.57;;;3.60;;
3791;SDS011;1911;53.768;11.474;2023-05-01T03:17:48;7.17;;;4.87;;
3791;SDS011;1911;53.768;11.474;2023-05-01T03:20:14;7.00;;;3.87;;
3791;SDS011;1911;53.768;11.474;2023-05-01T03:22:40;6.00;;;3.90;;
3791;SDS011;1911;53.768;11.474;2023-05-01T03:25:06;8.00;;;4.10;;
3791;SDS011;1911;53.768;11.474;2023-05-01T03:27:32;6.53;;;4.30;;
3791;SDS011;1911;53.768;11.474;2023-05-01T03:29:57;9.10;;;4.27;;
3791;SDS011;1911;53.768;11.474;2023-05-01T03:32:23;10.80;;;4.80;;
3791;SDS011;1911;53.768;11.474;2023-05-01T03:34:49;9.67;;;5.00;;
3791;SDS011;1911;53.768;11.474;2023-05-01T03:37:14;7.00;;;4.50;;
3791;SDS011;1911;53.768;11.474;2023-05-01T03:39:40;6.60;;;4.93;;
3791;SDS011;1911;53.768;11.474;2023-05-01T03:42:06;7.40;;;4.20;;
3791;SDS011;1911;53.768;11.474;2023-05-01T03:44:31;12.50;;;5.00;;
3791;SDS011;1911;53.768;11.474;2023-05-01T03:46:57;9.67;;;4.40;;
3791;SDS011;1911;53.768;11.474;2023-05-01T03:49:23;10.63;;;5.37;;
3791;SDS011;1911;53.768;11.474;2023-05-01T03:51:48;6.00;;;4.03;;
3791;SDS011;1911;53.768;11.474;2023-05-01T03:54:14;9.30;;;4.63;;
3791;SDS011;1911;53.768;11.474;2023-05-01T03:56:40;7.27;;;3.80;;
3791;SDS011;1911;53.768;11.474;2023-05-01T03:59:05;7.23;;;3.93;;
3791;SDS011;1911;53.768;11.474;2023-05-01T04:01:31;4.33;;;3.90;;
3791;SDS011;1911;53.768;11.474;2023-05-01T04:03:59;6.47;;;3.97;;
3791;SDS011;1911;53.768;11.474;2023-05-01T04:06:26;7.60;;;4.43;;
3791;SDS011;1911;53.768;11.474;2023-05-01T04:08:52;8.10;;;3.77;;
3791;SDS011;1911;53.768;11.474;2023-05-01T04:11:17;8.33;;;4.47;;
3791;SDS011;1911;53.768;11.474;2023-05-01T04:13:43;5.20;;;3.60;;
3791;SDS011;1911;53.768;11.474;2023-05-01T04:16:09;5.97;;;4.40;;
3791;SDS011;1911;53.768;11.474;2023-05-01T04:18:34;6.03;;;3.77;;
3791;SDS011;1911;53.768;11.474;2023-05-01T04:21:00;10.20;;;4.83;;
3791;SDS011;1911;53.768;11.474;2023-05-01T04:23:26;7.47;;;4.30;;
3791;SDS011;1911;53.768;11.474;2023-05-01T04:25:51;7.27;;;4.00;;
3791;SDS011;1911;53.768;11.474;2023-05-01T04:28:17;11.13;;;4.27;;
3791;SDS011;1911;53.768;11.474;2023-05-01T04:30:42;14.43;;;3.60;;
3791;SDS011;1911;53.768;11.474;2023-05-01T04:33:08;7.47;;;4.93;;
3791;SDS011;1911;53.768;11.474;2023-05-01T04:35:37;7.77;;;3.70;;
3791;SDS011;1911;53.768;11.474;2023-05-01T04:38:04;13.17;;;4.97;;
3791;SDS011;1911;53.768;11.474;2023-05-01T04:40:30;5.50;;;3.77;;
3791;SDS011;1911;53.768;11.474;2023-05-01T04:42:55;5.77;;;4.10;;
3791;SDS011;1911;53.768;11.474;2023-05-01T04:45:21;7.17;;;4.00;;
3791;SDS011;1911;53.768;11.474;2023-05-01T04:47:46;7.40;;;3.93;;
3791;SDS011;1911;53.768;11.474;2023-05-01T04:50:12;8.07;;;4.03;;
3791;SDS011;1911;53.768;11.474;2023-05-01T04:52:38;3.87;;;2.80;;
3791;SDS011;1911;53.768;11.474;2023-05-01T04:55:04;7.10;;;4.13;;
3791;SDS011;1911;53.768;11.474;2023-05-01T04:57:30;7.70;;;4.20;;
3791;SDS011;1911;53.768;11.474;2023-05-01T04:59:56;9.77;;;4.07;;
3791;SDS011;1911;53.768;11.474;2023-05-01T05:02:22;6.83;;;3.80;;
3791;SDS011;1911;53.768;11.474;2023-05-01T05:04:47;10.57;;;3.80;;
3791;SDS011;1911;53.768;11.474;2023-05-01T05:07:14;5.83;;;2.97;;
3791;SDS011;1911;53.768;11.474;2023-05-01T05:09:39;7.43;;;3.30;;
3791;SDS011;1911;53.768;11.474;2023-05-01T05:12:05;6.73;;;2.80;;
3791;SDS011;1911;53.768;11.474;2023-05-01T05:14:31;6.63;;;3.80;;
3791;SDS011;1911;53.768;11.474;2023-05-01T05:16:56;6.70;;;2.90;;
3791;SDS011;1911;53.768;11.474;2023-05-01T05:19:22;7.87;;;3.77;;
3791;SDS011;1911;53.768;11.474;2023-05-01T05:21:47;5.33;;;2.90;;
3791;SDS011;1911;53.768;11.474;2023-05-01T05:24:13;6.33;;;3.80;;
3791;SDS011;1911;53.768;11.474;2023-05-01T05:26:39;4.20;;;3.03;;
3791;SDS011;1911;53.768;11.474;2023-05-01T05:29:04;5.37;;;3.50;;
3791;SDS011;1911;53.768;11.474;2023-05-01T05:31:30;4.77;;;3.13;;
3791;SDS011;1911;53.768;11.474;2023-05-01T05:33:55;4.97;;;3.17;;
3791;SDS011;1911;53.768;11.474;2023-05-01T05:36:21;5.90;;;3.33;;
3791;SDS011;1911;53.768;11.474;2023-05-01T05:38:47;8.10;;;3.67;;
3791;SDS011;1911;53.768;11.474;2023-05-01T05:41:12;5.50;;;3.33;;
3791;SDS011;1911;53.768;11.474;2023-05-01T05:43:38;7.17;;;3.30;;
3791;SDS011;1911;53.768;11.474;2023-05-01T05:46:04;5.70;;;3.47;;
3791;SDS011;1911;53.768;11.474;2023-05-01T05:48:29;5.27;;;2.80;;
3791;SDS011;1911;53.768;11.474;2023-05-01T05:50:55;8.40;;;3.57;;
3791;SDS011;1911;53.768;11.474;2023-05-01T05:53:21;5.73;;;3.20;;
3791;SDS011;1911;53.768;11.474;2023-05-01T05:55:47;5.00;;;3.00;;
3791;SDS011;1911;53.768;11.474;2023-05-01T05:58:13;4.83;;;2.50;;
3791;SDS011;1911;53.768;11.474;2023-05-01T06:00:44;5.50;;;3.10;;
3791;SDS011;1911;53.768;11.474;2023-05-01T06:03:11;5.90;;;2.87;;
3791;SDS011;1911;53.768;11.474;2023-05-01T06:05:36;4.43;;;2.90;;
3791;SDS011;1911;53.768;11.474;2023-05-01T06:08:02;8.80;;;3.00;;
3791;SDS011;1911;53.768;11.474;2023-05-01T06:10:28;5.53;;;3.57;;
3791;SDS011;1911;53.768;11.474;2023-05-01T06:12:53;4.03;;;2.70;;
3791;SDS011;1911;53.768;11.474;2023-05-01T06:15:19;5.17;;;3.30;;
3791;SDS011;1911;53.768;11.474;2023-05-01T06:17:45;7.60;;;3.20;;
3791;SDS011;1911;53.768;11.474;2023-05-01T06:20:11;6.80;;;3.17;;
3791;SDS011;1911;53.768;11.474;2023-05-01T06:22:38;8.27;;;3.87;;
3791;SDS011;1911;53.768;11.474;2023-05-01T06:25:03;4.83;;;3.60;;
3791;SDS011;1911;53.768;11.474;2023-05-01T06:27:30;4.00;;;2.60;;
3791;SDS011;1911;53.768;11.474;2023-05-01T06:29:56;4.13;;;2.80;;
3791;SDS011;1911;53.768;11.474;2023-05-01T06:32:21;6.20;;;2.77;;
3791;SDS011;1911;53.768;11.474;2023-05-01T06:34:47;3.80;;;2.50;;
3791;SDS011;1911;53.768;11.474;2023-05-01T06:37:13;5.30;;;2.93;;
3791;SDS011;1911;53.768;11.474;2023-05-01T06:39:38;6.17;;;3.33;;
3791;SDS011;1911;53.768;11.474;2023-05-01T06:42:04;5.87;;;2.87;;
3791;SDS011;1911;53.768;11.474;2023-05-01T06:44:30;5.33;;;3.10;;
3791;SDS011;1911;53.768;11.474;2023-05-01T06:46:56;8.90;;;3.73;;
3791;SDS011;1911;53.768;11.474;2023-05-01T06:49:22;3.43;;;2.63;;
3791;SDS011;1911;53.768;11.474;2023-05-01T06:51:48;6.70;;;2.93;;
3791;SDS011;1911;53.768;11.474;2023-05-01T06:54:13;4.00;;;2.43;;
3791;SDS011;1911;53.768;11.474;2023-05-01T06:56:39;4.83;;;2.97;;
3791;SDS011;1911;53.768;11.474;2023-05-01T06:59:05;4.40;;;3.00;;
3791;SDS011;1911;53.768;11.474;2023-05-01T07:01:30;4.50;;;2.80;;
3791;SDS011;1911;53.768;11.474;2023-05-01T07:03:56;3.93;;;2.90;;
3791;SDS011;1911;53.768;11.474;2023-05-01T07:06:21;3.50;;;2.77;;
3791;SDS011;1911;53.768;11.474;2023-05-01T07:08:47;4.70;;;2.93;;
3791;SDS011;1911;53.768;11.474;2023-05-01T07:11:13;4.33;;;2.93;;
3791;SDS011;1911;53.768;11.474;2023-05-01T07:13:38;5.77;;;2.90;;
3791;SDS011;1911;53.768;11.474;2023-05-01T07:16:04;5.20;;;3.20;;
3791;SDS011;1911;53.768;11.474;2023-05-01T07:18:31;6.70;;;3.40;;
3791;SDS011;1911;53.768;11.474;2023-05-01T07:20:56;3.77;;;2.50;;
3791;SDS011;1911;53.768;11.474;2023-05-01T07:23:22;4.30;;;2.60;;
3791;SDS011;1911;53.768;11.474;2023-05-01T07:25:49;3.00;;;2.30;;
3791;SDS011;1911;53.768;11.474;2023-05-01T07:28:14;5.50;;;3.10;;
3791;SDS011;1911;53.768;11.474;2023-05-01T07:30:42;5.20;;;2.70;;
3791;SDS011;1911;53.768;11.474;2023-05-01T07:33:07;6.00;;;2.80;;
3791;SDS011;1911;53.768;11.474;2023-05-01T07:35:33;5.03;;;2.77;;
3791;SDS011;1911;53.768;11.474;2023-05-01T07:37:58;5.97;;;3.50;;
3791;SDS011;1911;53.768;11.474;2023-05-01T07:40:24;6.77;;;2.90;;
3791;SDS011;1911;53.768;11.474;2023-05-01T07:42:50;4.70;;;2.80;;
3791;SDS011;1911;53.768;11.474;2023-05-01T07:45:15;7.70;;;3.67;;
3791;SDS011;1911;53.768;11.474;2023-05-01T07:47:41;4.30;;;2.70;;
3791;SDS011;1911;53.768;11.474;2023-05-01T07:50:10;4.30;;;2.50;;
3791;SDS011;1911;53.768;11.474;2023-05-01T07:52:37;4.77;;;2.83;;
3791;SDS011;1911;53.768;11.474;2023-05-01T07:55:04;5.90;;;3.10;;
3791;SDS011;1911;53.768;11.474;2023-05-01T07:57:30;4.93;;;3.10;;
3791;SDS011;1911;53.768;11.474;2023-05-01T07:59:57;4.93;;;2.87;;
3791;SDS011;1911;53.768;11.474;2023-05-01T08:02:23;4.13;;;3.63;;
3791;SDS011;1911;53.768;11.474;2023-05-01T08:04:49;4.80;;;3.10;;
3791;SDS011;1911;53.768;11.474;2023-05-01T08:07:14;3.97;;;2.43;;
3791;SDS011;1911;53.768;11.474;2023-05-01T08:09:40;7.90;;;3.40;;
3791;SDS011;1911;53.768;11.474;2023-05-01T08:12:06;6.40;;;2.57;;
3791;SDS011;1911;53.768;11.474;2023-05-01T08:14:32;4.03;;;2.90;;
3791;SDS011;1911;53.768;11.474;2023-05-01T08:16:57;4.83;;;3.00;;
3791;SDS011;1911;53.768;11.474;2023-05-01T08:19:23;5.53;;;2.67;;
3791;SDS011;1911;53.768;11.474;2023-05-01T08:21:49;9.30;;;2.97;;
3791;SDS011;1911;53.768;11.474;2023-05-01T08:24:15;6.50;;;2.70;;
3791;SDS011;1911;53.768;11.474;2023-05-01T08:26:41;8.30;;;3.50;;
3791;SDS011;1911;53.768;11.474;2023-05-01T08:29:06;6.57;;;2.83;;
3791;SDS011;1911;53.768;11.474;2023-05-01T08:31:32;3.93;;;2.77;;
3791;SDS011;1911;53.768;11.474;2023-05-01T08:34:01;4.17;;;2.70;;
3791;SDS011;1911;53.768;11.474;2023-05-01T08:36:27;5.60;;;3.30;;
3791;SDS011;1911;53.768;11.474;2023-05-01T08:38:53;4.70;;;2.50;;
3791;SDS011;1911;53.768;11.474;2023-05-01T08:41:20;3.23;;;2.57;;
3791;SDS011;1911;53.768;11.474;2023-05-01T08:43:47;3.67;;;2.57;;
3791;SDS011;1911;53.768;11.474;2023-05-01T08:46:23;4.17;;;2.70;;
3791;SDS011;1911;53.768;11.474;2023-05-01T08:48:57;3.60;;;2.83;;
3791;SDS011;1911;53.768;11.474;2023-05-01T08:51:26;3.53;;;2.77;;
3791;SDS011;1911;53.768;11.474;2023-05-01T08:53:55;6.00;;;3.10;;
3791;SDS011;1911;53.768;11.474;2023-05-01T08:56:22;4.77;;;3.00;;
3791;SDS011;1911;53.768;11.474;2023-05-01T08:58:49;5.23;;;2.43;;
3791;SDS011;1911;53.768;11.474;2023-05-01T09:01:16;4.90;;;2.83;;
3791;SDS011;1911;53.768;11.474;2023-05-01T09:03:44;7.10;;;3.13;;
3791;SDS011;1911;53.768;11.474;2023-05-01T09:06:10;5.60;;;2.50;;
3791;SDS011;1911;53.768;11.474;2023-05-01T09:08:37;7.67;;;3.27;;
3791;SDS011;1911;53.768;11.474;2023-05-01T09:11:03;4.77;;;2.50;;
3791;SDS011;1911;53.768;11.474;2023-05-01T09:13:29;7.10;;;3.50;;
3791;SDS011;1911;53.768;11.474;2023-05-01T09:15:55;4.90;;;2.63;;
3791;SDS011;1911;53.768;11.474;2023-05-01T09:18:21;3.57;;;2.33;;
3791;SDS011;1911;53.768;11.474;2023-05-01T09:20:47;3.63;;;2.17;;
3791;SDS011;1911;53.768;11.474;2023-05-01T09:23:13;4.87;;;2.33;;
3791;SDS011;1911;53.768;11.474;2023-05-01T09:25:38;4.23;;;2.27;;
3791;SDS011;1911;53.768;11.474;2023-05-01T09:28:05;3.40;;;2.20;;
3791;SDS011;1911;53.768;11.474;2023-05-01T09:30:35;13.90;;;2.67;;
3791;SDS011;1911;53.768;11.474;2023-05-01T09:33:08;5.77;;;2.27;;
3791;SDS011;1911;53.768;11.474;2023-05-01T09:35:55;3.93;;;2.37;;
3791;SDS011;1911;53.768;11.474;2023-05-01T09:38:22;6.30;;;2.73;;
3791;SDS011;1911;53.768;11.474;2023-05-01T09:40:49;5.40;;;3.40;;
3791;SDS011;1911;53.768;11.474;2023-05-01T09:43:25;5.87;;;2.90;;
3791;SDS011;1911;53.768;11.474;2023-05-01T09:46:00;3.57;;;2.40;;
3791;SDS011;1911;53.768;11.474;2023-05-01T09:48:26;4.63;;;2.50;;
3791;SDS011;1911;53.768;11.474;2023-05-01T09:50:51;6.63;;;2.03;;
3791;SDS011;1911;53.768;11.474;2023-05-01T09:53:17;3.43;;;2.10;;
3791;SDS011;1911;53.768;11.474;2023-05-01T09:55:43;6.27;;;2.80;;
3791;SDS011;1911;53.768;11.474;2023-05-01T09:58:30;4.27;;;2.47;;
3791;SDS011;1911;53.768;11.474;2023-05-01T10:00:56;6.77;;;2.63;;
3791;SDS011;1911;53.768;11.474;2023-05-01T10:03:22;4.93;;;1.93;;
3791;SDS011;1911;53.768;11.474;2023-05-01T10:05:47;5.10;;;2.20;;
3791;SDS011;1911;53.768;11.474;2023-05-01T10:08:13;6.47;;;2.33;;
3791;SDS011;1911;53.768;11.474;2023-05-01T10:10:41;2.70;;;2.00;;
3791;SDS011;1911;53.768;11.474;2023-05-01T10:13:11;7.77;;;2.77;;
3791;SDS011;1911;53.768;11.474;2023-05-01T10:15:41;7.07;;;2.60;;
3791;SDS011;1911;53.768;11.474;2023-05-01T10:18:08;10.53;;;2.83;;
3791;SDS011;1911;53.768;11.474;2023-05-01T10:20:35;4.20;;;2.40;;
3791;SDS011;1911;53.768;11.474;2023-05-01T10:23:01;5.33;;;1.83;;
3791;SDS011;1911;53.768;11.474;2023-05-01T10:25:30;7.40;;;2.10;;
3791;SDS011;1911;53.768;11.474;2023-05-01T10:27:56;4.73;;;2.00;;
3791;SDS011;1911;53.768;11.474;2023-05-01T10:30:24;4.53;;;1.90;;
3791;SDS011;1911;53.768;11.474;2023-05-01T10:32:50;3.13;;;1.90;;
3791;SDS011;1911;53.768;11.474;2023-05-01T10:35:23;6.67;;;2.67;;
3791;SDS011;1911;53.768;11.474;2023-05-01T10:38:00;6.20;;;2.33;;
3791;SDS011;1911;53.768;11.474;2023-05-01T10:45:41;2.90;;;2.00;;
3791;SDS011;1911;53.768;11.474;2023-05-01T10:48:11;3.70;;;2.47;;
3791;SDS011;1911;53.768;11.474;2023-05-01T10:51:56;5.90;;;1.80;;
3791;SDS011;1911;53.768;11.474;2023-05-01T10:53:35;4.27;;;2.20;;
3791;SDS011;1911;53.768;11.474;2023-05-01T10:56:02;2.83;;;1.80;;
3791;SDS011;1911;53.768;11.474;2023-05-01T11:09:45;2.70;;;1.60;;
3791;SDS011;1911;53.768;11.474;2023-05-01T11:12:13;2.40;;;1.63;;
3791;SDS011;1911;53.768;11.474;2023-05-01T11:20:04;2.83;;;1.60;;
3791;SDS011;1911;53.768;11.474;2023-05-01T11:22:30;5.70;;;2.43;;
3791;SDS011;1911;53.768;11.474;2023-05-01T11:25:00;4.17;;;1.60;;
3791;SDS011;1911;53.768;11.474;2023-05-01T11:27:29;5.37;;;1.80;;
3791;SDS011;1911;53.768;11.474;2023-05-01T11:29:55;3.47;;;1.77;;
3791;SDS011;1911;53.768;11.474;2023-05-01T11:32:24;8.60;;;2.20;;
3791;SDS011;1911;53.768;11.474;2023-05-01T11:34:52;3.10;;;1.67;;
3791;SDS011;1911;53.768;11.474;2023-05-01T11:37:18;6.67;;;1.70;;
3791;SDS011;1911;53.768;11.474;2023-05-01T11:39:48;2.53;;;1.60;;
3791;SDS011;1911;53.768;11.474;2023-05-01T11:42:14;3.63;;;1.93;;
3791;SDS011;1911;53.768;11.474;2023-05-01T11:44:39;10.00;;;1.90;;
3791;SDS011;1911;53.768;11.474;2023-05-01T11:47:05;6.10;;;2.07;;
3791;SDS011;1911;53.768;11.474;2023-05-01T11:49:33;5.83;;;2.07;;
3791;SDS011;1911;53.768;11.474;2023-05-01T11:51:59;3.07;;;2.03;;
3791;SDS011;1911;53.768;11.474;2023-05-01T11:54:25;5.00;;;2.00;;
3791;SDS011;1911;53.768;11.474;2023-05-01T11:56:57;2.10;;;1.73;;
3791;SDS011;1911;53.768;11.474;2023-05-01T11:59:24;3.70;;;2.20;;
3791;SDS011;1911;53.768;11.474;2023-05-01T12:01:51;2.90;;;2.00;;
3791;SDS011;1911;53.768;11.474;2023-05-01T12:04:26;2.67;;;1.73;;
3791;SDS011;1911;53.768;11.474;2023-05-01T12:06:52;4.27;;;2.10;;
3791;SDS011;1911;53.768;11.474;2023-05-01T12:09:22;4.30;;;2.40;;
3791;SDS011;1911;53.768;11.474;2023-05-01T12:11:51;6.10;;;1.97;;
3791;SDS011;1911;53.768;11.474;2023-05-01T12:14:17;3.33;;;1.83;;
3791;SDS011;1911;53.768;11.474;2023-05-01T12:16:44;2.77;;;2.03;;
3791;SDS011;1911;53.768;11.474;2023-05-01T12:19:11;2.37;;;1.80;;
3791;SDS011;1911;53.768;11.474;2023-05-01T12:21:38;3.60;;;1.90;;
3791;SDS011;1911;53.768;11.474;2023-05-01T12:24:07;3.37;;;1.87;;
3791;SDS011;1911;53.768;11.474;2023-05-01T12:26:40;3.97;;;2.00;;
3791;SDS011;1911;53.768;11.474;2023-05-01T12:29:06;7.63;;;2.63;;
3791;SDS011;1911;53.768;11.474;2023-05-01T12:31:34;3.13;;;1.80;;
3791;SDS011;1911;53.768;11.474;2023-05-01T12:34:01;2.70;;;1.60;;
3791;SDS011;1911;53.768;11.474;2023-05-01T12:36:29;4.20;;;1.80;;
3791;SDS011;1911;53.768;11.474;2023-05-01T12:38:57;3.43;;;2.37;;
3791;SDS011;1911;53.768;11.474;2023-05-01T12:44:21;3.40;;;1.60;;
3791;SDS011;1911;53.768;11.474;2023-05-01T12:46:54;5.50;;;2.10;;
3791;SDS011;1911;53.768;11.474;2023-05-01T12:49:20;2.53;;;1.70;;
3791;SDS011;1911;53.768;11.474;2023-05-01T12:51:51;5.63;;;2.03;;
3791;SDS011;1911;53.768;11.474;2023-05-01T12:56:47;4.60;;;2.30;;
3791;SDS011;1911;53.768;11.474;2023-05-01T12:59:23;2.10;;;1.40;;
3791;SDS011;1911;53.768;11.474;2023-05-01T13:01:59;2.40;;;1.97;;
3791;SDS011;1911;53.768;11.474;2023-05-01T13:04:26;7.20;;;2.57;;
3791;SDS011;1911;53.768;11.474;2023-05-01T13:06:53;5.67;;;2.20;;
3791;SDS011;1911;53.768;11.474;2023-05-01T13:09:20;2.40;;;1.77;;
3791;SDS011;1911;53.768;11.474;2023-05-01T13:12:00;4.80;;;1.53;;
3791;SDS011;1911;53.768;11.474;2023-05-01T13:14:29;2.03;;;1.60;;
3791;SDS011;1911;53.768;11.474;2023-05-01T13:17:05;3.87;;;1.83;;
3791;SDS011;1911;53.768;11.474;2023-05-01T13:19:31;2.60;;;1.80;;
3791;SDS011;1911;53.768;11.474;2023-05-01T13:21:57;2.73;;;1.77;;
3791;SDS011;1911;53.768;11.474;2023-05-01T13:24:23;2.10;;;1.50;;
3791;SDS011;1911;53.768;11.474;2023-05-01T13:26:59;4.47;;;1.57;;
3791;SDS011;1911;53.768;11.474;2023-05-01T13:29:26;2.90;;;1.33;;
3791;SDS011;1911;53.768;11.474;2023-05-01T13:31:54;1.83;;;1.20;;
3791;SDS011;1911;53.768;11.474;2023-05-01T13:34:24;3.87;;;1.87;;
3791;SDS011;1911;53.768;11.474;2023-05-01T13:36:54;3.13;;;1.93;;
3791;SDS011;1911;53.768;11.474;2023-05-01T13:39:20;5.20;;;1.70;;
3791;SDS011;1911;53.768;11.474;2023-05-01T13:41:46;2.63;;;1.90;;
3791;SDS011;1911;53.768;11.474;2023-05-01T13:44:13;4.60;;;1.60;;
3791;SDS011;1911;53.768;11.474;2023-05-01T13:46:40;3.13;;;1.33;;
3791;SDS011;1911;53.768;11.474;2023-05-01T13:49:08;2.67;;;1.70;;
3791;SDS011;1911;53.768;11.474;2023-05-01T13:51:34;5.53;;;1.70;;
3791;SDS011;1911;53.768;11.474;2023-05-01T13:54:06;4.73;;;1.77;;
3791;SDS011;1911;53.768;11.474;2023-05-01T13:56:33;2.30;;;1.53;;
3791;SDS011;1911;53.768;11.474;2023-05-01T13:58:59;2.70;;;1.40;;
3791;SDS011;1911;53.768;11.474;2023-05-01T14:01:25;3.17;;;1.70;;
3791;SDS011;1911;53.768;11.474;2023-05-01T14:03:52;2.90;;;1.80;;
3791;SDS011;1911;53.768;11.474;2023-05-01T14:06:21;6.90;;;1.90;;
3791;SDS011;1911;53.768;11.474;2023-05-01T14:08:50;3.30;;;1.33;;
3791;SDS011;1911;53.768;11.474;2023-05-01T14:11:16;6.17;;;1.67;;
3791;SDS011;1911;53.768;11.474;2023-05-01T14:13:43;7.43;;;2.23;;
3791;SDS011;1911;53.768;11.474;2023-05-01T14:16:16;6.03;;;1.60;;
3791;SDS011;1911;53.768;11.474;2023-05-01T14:18:49;4.27;;;2.30;;
3791;SDS011;1911;53.768;11.474;2023-05-01T14:21:21;3.10;;;2.10;;
3791;SDS011;1911;53.768;11.474;2023-05-01T14:23:48;3.77;;;1.87;;
3791;SDS011;1911;53.768;11.474;2023-05-01T14:26:16;3.73;;;1.47;;
3791;SDS011;1911;53.768;11.474;2023-05-01T14:28:44;3.40;;;1.90;;
3791;SDS011;1911;53.768;11.474;2023-05-01T14:31:26;4.60;;;2.37;;
3791;SDS011;1911;53.768;11.474;2023-05-01T14:33:57;4.87;;;1.63;;
3791;SDS011;1911;53.768;11.474;2023-05-01T14:36:24;4.83;;;1.73;;
3791;SDS011;1911;53.768;11.474;2023-05-01T14:38:54;5.07;;;1.83;;
3791;SDS011;1911;53.768;11.474;2023-05-01T14:41:20;3.90;;;1.60;;
3791;SDS011;1911;53.768;11.474;2023-05-01T14:43:46;4.33;;;2.00;;
3791;SDS011;1911;53.768;11.474;2023-05-01T14:46:15;8.27;;;1.97;;
3791;SDS011;1911;53.768;11.474;2023-05-01T14:48:51;5.60;;;2.00;;
3791;SDS011;1911;53.768;11.474;2023-05-01T14:51:17;2.97;;;1.40;;
3791;SDS011;1911;53.768;11.474;2023-05-01T14:53:43;2.83;;;1.53;;
3791;SDS011;1911;53.768;11.474;2023-05-01T14:56:10;5.53;;;1.90;;
3791;SDS011;1911;53.768;11.474;2023-05-01T14:58:36;2.90;;;1.80;;
3791;SDS011;1911;53.768;11.474;2023-05-01T15:01:02;2.77;;;1.50;;
3791;SDS011;1911;53.768;11.474;2023-05-01T15:03:27;6.80;;;1.80;;
3791;SDS011;1911;53.768;11.474;2023-05-01T15:05:53;5.30;;;1.77;;
3791;SDS011;1911;53.768;11.474;2023-05-01T15:08:20;6.23;;;1.80;;
3791;SDS011;1911;53.768;11.474;2023-05-01T15:10:46;2.90;;;1.80;;
3791;SDS011;1911;53.768;11.474;2023-05-01T15:13:12;3.40;;;1.70;;
3791;SDS011;1911;53.768;11.474;2023-05-01T15:15:37;3.83;;;2.20;;
3791;SDS011;1911;53.768;11.474;2023-05-01T15:18:03;3.53;;;2.20;;
3791;SDS011;1911;53.768;11.474;2023-05-01T15:20:29;2.57;;;1.70;;
3791;SDS011;1911;53.768;11.474;2023-05-01T15:22:55;3.07;;;1.30;;
3791;SDS011;1911;53.768;11.474;2023-05-01T15:25:21;4.63;;;2.30;;
3791;SDS011;1911;53.768;11.474;2023-05-01T15:27:46;3.73;;;1.83;;
3791;SDS011;1911;53.768;11.474;2023-05-01T15:30:14;3.00;;;1.93;;
3791;SDS011;1911;53.768;11.474;2023-05-01T15:32:40;3.30;;;2.07;;
3791;SDS011;1911;53.768;11.474;2023-05-01T15:35:06;2.63;;;2.00;;
3791;SDS011;1911;53.768;11.474;2023-05-01T15:37:33;6.43;;;2.20;;
3791;SDS011;1911;53.768;11.474;2023-05-01T15:39:58;3.77;;;2.50;;
3791;SDS011;1911;53.768;11.474;2023-05-01T15:42:24;5.40;;;2.30;;